Time;durP1;ratioP1;P1;durP2;ratioP2;P2;SDS_P1;SDS_P2;PMS_P1;PMS_P2;Temp;Humidity;BMP_temperature;BMP_pressure;BME280_temperature;BME280_humidity;BME280_pressure;Samples;Min_cycle;Max_cycle;Signal;HPM_P1;HPM_P2
2023/06/02 00:01:31;;;;;;;4.50;4.13;;;15.00;57.60;;;;;;941681;149;27359;-73
2023/06/02 00:03:56;;;;;;;6.60;4.70;;;15.00;57.10;;;;;;940505;149;27335;-72
2023/06/02 00:06:22;;;;;;;5.70;4.33;;;14.90;57.30;;;;;;940202;149;28139;-73
2023/06/02 00:08:49;;;;;;;5.07;4.60;;;14.90;57.30;;;;;;941280;149;27321;-72
2023/06/02 00:11:15;;;;;;;5.00;4.60;;;14.90;57.50;;;;;;941300;149;27337;-72
2023/06/02 00:13:42;;;;;;;4.57;4.20;;;14.80;57.60;;;;;;941335;149;27333;-73
2023/06/02 00:16:08;;;;;;;4.40;4.10;;;14.80;57.70;;;;;;947894;147;27485;-73
2023/06/02 00:18:37;;;;;;;6.07;5.10;;;14.80;57.80;;;;;;961018;147;27471;-73
2023/06/02 00:21:01;;;;;;;5.57;5.07;;;14.70;57.80;;;;;;967168;147;27379;-72
2023/06/02 00:23:29;;;;;;;5.07;4.67;;;14.70;57.90;;;;;;968609;147;27422;-72
2023/06/02 00:25:55;;;;;;;5.20;4.70;;;14.70;58.20;;;;;;968960;147;27346;-73
2023/06/02 00:28:21;;;;;;;4.93;4.53;;;14.60;58.20;;;;;;967735;147;27326;-72
2023/06/02 00:30:48;;;;;;;5.20;4.70;;;14.60;58.30;;;;;;970316;147;27277;-73
2023/06/02 00:33:14;;;;;;;6.03;4.87;;;14.60;58.40;;;;;;969689;145;27657;-72
2023/06/02 00:35:41;;;;;;;4.77;4.40;;;14.50;58.50;;;;;;969656;145;27449;-72
2023/06/02 00:38:08;;;;;;;5.73;4.73;;;14.50;58.70;;;;;;968775;147;27392;-72
2023/06/02 00:40:34;;;;;;;4.80;4.40;;;14.50;58.80;;;;;;969962;147;27279;-73
2023/06/02 00:43:01;;;;;;;4.77;4.23;;;14.40;58.80;;;;;;970166;147;27259;-73
2023/06/02 00:45:27;;;;;;;4.60;4.20;;;14.40;59.00;;;;;;969886;147;27340;-72
2023/06/02 00:47:55;;;;;;;4.90;4.30;;;14.40;59.00;;;;;;969886;147;27403;-72
2023/06/02 00:50:21;;;;;;;5.10;4.63;;;14.40;59.20;;;;;;968996;147;27278;-73
2023/06/02 00:52:47;;;;;;;5.53;4.13;;;14.30;59.30;;;;;;968894;145;27251;-72
2023/06/02 00:55:14;;;;;;;5.33;4.83;;;14.30;59.30;;;;;;967879;145;27317;-73
2023/06/02 00:57:40;;;;;;;4.60;4.20;;;14.30;59.60;;;;;;968177;145;28001;-73
2023/06/02 01:00:09;;;;;;;4.90;4.50;;;14.20;59.70;;;;;;967359;145;27264;-72
2023/06/02 01:02:34;;;;;;;4.73;4.23;;;14.20;59.60;;;;;;966883;145;27771;-73
2023/06/02 01:05:00;;;;;;;4.67;4.27;;;14.20;60.50;;;;;;966378;145;27298;-73
2023/06/02 01:07:27;;;;;;;4.80;4.40;;;14.20;60.00;;;;;;965161;145;27322;-72
2023/06/02 01:09:54;;;;;;;4.83;4.40;;;14.20;60.00;;;;;;966486;145;27315;-72
2023/06/02 01:12:20;;;;;;;5.13;4.63;;;14.10;60.30;;;;;;967155;145;27263;-72
2023/06/02 01:14:46;;;;;;;4.83;4.43;;;14.10;60.40;;;;;;967914;145;27280;-73
2023/06/02 01:17:13;;;;;;;6.93;4.73;;;14.10;60.40;;;;;;967419;145;27439;-73
2023/06/02 01:19:40;;;;;;;4.80;4.40;;;14.00;60.70;;;;;;964361;145;27453;-73
2023/06/02 01:22:08;;;;;;;4.47;4.07;;;14.00;60.00;;;;;;950167;147;27303;-73
2023/06/02 01:24:39;;;;;;;4.40;4.10;;;13.90;60.80;;;;;;927105;150;27331;-72
2023/06/02 01:27:06;;;;;;;4.90;4.40;;;13.90;61.00;;;;;;925952;151;27396;-72
2023/06/02 01:29:35;;;;;;;4.63;4.33;;;13.90;61.20;;;;;;947922;148;27353;-72
2023/06/02 01:32:00;;;;;;;5.53;4.50;;;13.80;60.90;;;;;;948452;148;27405;-72
2023/06/02 01:34:25;;;;;;;4.97;4.47;;;13.80;61.40;;;;;;947626;147;27344;-72
2023/06/02 01:36:52;;;;;;;4.37;3.97;;;13.80;61.60;;;;;;948444;148;27382;-73
2023/06/02 01:39:18;;;;;;;7.70;4.47;;;13.70;61.60;;;;;;949063;148;27388;-73
2023/06/02 01:41:45;;;;;;;4.80;4.40;;;13.70;61.70;;;;;;949159;148;27475;-73
2023/06/02 01:44:12;;;;;;;5.60;4.53;;;13.70;61.90;;;;;;961232;146;27366;-73
2023/06/02 01:46:39;;;;;;;4.70;4.30;;;13.60;62.10;;;;;;963007;146;27298;-72
2023/06/02 01:49:05;;;;;;;4.70;4.30;;;13.60;62.20;;;;;;963319;145;27377;-72
2023/06/02 01:51:31;;;;;;;4.90;4.50;;;13.50;62.20;;;;;;961906;145;27419;-72
2023/06/02 01:53:58;;;;;;;5.67;4.27;;;13.50;62.40;;;;;;963251;145;27237;-72
2023/06/02 01:56:25;;;;;;;5.43;4.90;;;13.50;62.70;;;;;;964389;146;27320;-73
2023/06/02 01:58:52;;;;;;;5.07;4.50;;;13.40;62.50;;;;;;963768;146;27288;-73
2023/06/02 02:01:18;;;;;;;4.53;4.13;;;13.40;62.40;;;;;;963576;146;27336;-72
2023/06/02 02:03:44;;;;;;;5.37;4.43;;;13.30;62.80;;;;;;963881;146;27417;-73
2023/06/02 02:06:11;;;;;;;4.43;4.03;;;13.30;63.00;;;;;;963651;145;27311;-72
2023/06/02 02:08:37;;;;;;;5.70;5.20;;;13.30;63.10;;;;;;961792;146;27312;-72
2023/06/02 02:11:04;;;;;;;4.60;4.23;;;13.30;63.40;;;;;;963946;145;27910;-73
2023/06/02 02:13:31;;;;;;;4.37;3.90;;;13.20;63.40;;;;;;964080;145;27324;-73
2023/06/02 02:15:57;;;;;;;4.60;4.13;;;13.20;63.40;;;;;;963320;146;27279;-72
2023/06/02 02:18:27;;;;;;;5.47;4.47;;;13.20;63.50;;;;;;962818;146;27289;-72
2023/06/02 02:20:50;;;;;;;6.23;5.17;;;13.10;63.60;;;;;;968469;145;27350;-73
2023/06/02 02:23:17;;;;;;;5.33;4.80;;;13.10;63.80;;;;;;967559;145;27327;-72
2023/06/02 02:25:44;;;;;;;5.03;4.33;;;13.10;63.90;;;;;;967848;145;27427;-73
2023/06/02 02:28:10;;;;;;;4.87;4.30;;;13.00;64.00;;;;;;947996;148;27297;-73
2023/06/02 02:30:37;;;;;;;5.87;4.37;;;13.00;64.30;;;;;;949940;148;27351;-73
2023/06/02 02:33:05;;;;;;;4.60;4.13;;;13.00;64.30;;;;;;949163;148;27437;-72
2023/06/02 02:35:30;;;;;;;6.80;4.73;;;13.00;64.40;;;;;;950142;148;27453;-72
2023/06/02 02:37:57;;;;;;;4.73;4.33;;;12.90;64.50;;;;;;968089;145;27289;-72
2023/06/02 02:40:23;;;;;;;6.83;4.60;;;12.90;64.60;;;;;;967722;145;27257;-73
2023/06/02 02:42:50;;;;;;;4.87;4.47;;;12.80;64.60;;;;;;968236;145;27657;-72
2023/06/02 02:45:16;;;;;;;5.13;4.63;;;12.90;64.60;;;;;;964124;148;27342;-72
2023/06/02 02:47:43;;;;;;;5.97;5.30;;;12.80;64.80;;;;;;969624;145;27300;-73
2023/06/02 02:50:09;;;;;;;5.67;4.63;;;12.80;65.00;;;;;;968918;145;27288;-72
2023/06/02 02:52:36;;;;;;;5.67;4.47;;;12.80;65.00;;;;;;969118;145;27257;-75
2023/06/02 02:55:03;;;;;;;6.77;4.30;;;12.80;65.00;;;;;;968154;145;27446;-75
2023/06/02 02:57:31;;;;;;;4.60;4.20;;;12.70;65.10;;;;;;970849;145;27441;-75
2023/06/02 02:59:56;;;;;;;6.13;4.10;;;12.70;65.30;;;;;;953159;148;27303;-76
2023/06/02 03:02:22;;;;;;;6.37;4.87;;;12.70;65.40;;;;;;968977;145;27339;-77
2023/06/02 03:04:51;;;;;;;5.27;4.77;;;12.70;65.60;;;;;;969698;145;27324;-77
2023/06/02 03:07:16;;;;;;;5.17;4.67;;;12.70;65.40;;;;;;967813;145;27472;-77
2023/06/02 03:09:42;;;;;;;4.60;4.17;;;12.70;65.70;;;;;;967873;145;27425;-77
2023/06/02 03:12:09;;;;;;;5.47;4.10;;;12.70;65.70;;;;;;968244;145;27420;-77
2023/06/02 03:14:35;;;;;;;5.30;4.80;;;12.60;65.80;;;;;;969936;145;27341;-77
2023/06/02 03:17:02;;;;;;;6.10;4.43;;;12.60;65.90;;;;;;969189;145;27354;-77
2023/06/02 03:19:29;;;;;;;5.30;4.53;;;12.60;66.00;;;;;;951913;148;27302;-77
2023/06/02 03:21:58;;;;;;;5.27;4.70;;;12.60;66.00;;;;;;968644;145;27292;-77
2023/06/02 03:24:24;;;;;;;5.40;4.57;;;12.60;66.10;;;;;;952902;148;27352;-77
2023/06/02 03:26:55;;;;;;;4.77;4.27;;;12.50;66.20;;;;;;949129;148;27466;-75
2023/06/02 03:29:20;;;;;;;5.00;4.57;;;12.50;67.10;;;;;;967546;145;27375;-75
2023/06/02 03:31:47;;;;;;;5.63;4.73;;;12.50;66.40;;;;;;954306;147;27445;-76
2023/06/02 03:34:14;;;;;;;4.50;4.10;;;12.50;65.80;;;;;;951446;148;27356;-76
2023/06/02 03:36:40;;;;;;;7.67;4.27;;;12.50;66.50;;;;;;945114;147;27358;-75
2023/06/02 03:39:07;;;;;;;5.53;4.40;;;12.50;66.70;;;;;;952036;148;27379;-75
2023/06/02 03:41:33;;;;;;;6.10;4.63;;;12.50;66.80;;;;;;952249;148;27255;-76
2023/06/02 03:44:00;;;;;;;7.13;5.10;;;12.50;67.00;;;;;;952307;147;27328;-75
2023/06/02 03:46:26;;;;;;;4.37;4.03;;;12.50;67.10;;;;;;951732;148;27438;-76
2023/06/02 03:48:53;;;;;;;4.97;4.47;;;12.50;67.20;;;;;;949326;148;27363;-76
2023/06/02 03:51:20;;;;;;;4.70;4.33;;;12.50;67.30;;;;;;968255;145;27420;-75
2023/06/02 03:53:46;;;;;;;7.20;4.90;;;12.50;67.00;;;;;;970405;145;27312;-75
2023/06/02 03:56:13;;;;;;;8.67;4.50;;;12.50;66.90;;;;;;951154;148;27454;-74
2023/06/02 03:58:40;;;;;;;6.70;4.47;;;12.60;67.30;;;;;;968591;145;27323;-75
2023/06/02 04:01:06;;;;;;;5.77;4.37;;;12.60;67.20;;;;;;952380;148;27335;-75
2023/06/02 04:03:36;;;;;;;5.17;4.67;;;12.70;67.20;;;;;;947356;148;27297;-75
2023/06/02 04:05:59;;;;;;;6.27;4.83;;;12.70;67.00;;;;;;951820;147;27306;-75
2023/06/02 04:08:26;;;;;;;6.23;4.57;;;12.70;67.00;;;;;;951824;148;27399;-75
2023/06/02 04:10:52;;;;;;;6.40;4.40;;;12.80;67.20;;;;;;950004;148;27382;-75
2023/06/02 04:13:19;;;;;;;8.33;4.60;;;12.90;67.30;;;;;;951249;148;27314;-75
2023/06/02 04:15:46;;;;;;;7.03;4.50;;;12.90;66.70;;;;;;951667;148;27333;-75
2023/06/02 04:18:12;;;;;;;4.83;4.43;;;13.00;66.90;;;;;;949776;148;27308;-75
2023/06/02 04:20:39;;;;;;;5.00;4.53;;;13.10;66.60;;;;;;966801;145;27749;-75
2023/06/02 04:23:05;;;;;;;7.50;4.40;;;13.20;66.40;;;;;;965925;146;27295;-74
2023/06/02 04:25:32;;;;;;;6.67;4.30;;;13.20;66.30;;;;;;964410;146;27357;-75
2023/06/02 04:27:58;;;;;;;5.20;4.40;;;13.30;66.20;;;;;;966036;146;27320;-75
2023/06/02 04:30:26;;;;;;;7.63;4.60;;;13.30;66.00;;;;;;966087;146;27323;-75
2023/06/02 04:32:52;;;;;;;6.17;4.17;;;13.40;66.00;;;;;;963517;146;27437;-75
2023/06/02 04:35:18;;;;;;;7.20;4.30;;;13.50;66.10;;;;;;964616;146;27289;-75
2023/06/02 04:37:46;;;;;;;5.33;4.13;;;13.60;65.90;;;;;;964278;146;27388;-75
2023/06/02 04:40:11;;;;;;;6.13;4.40;;;13.70;65.80;;;;;;965651;146;27330;-75
2023/06/02 04:42:38;;;;;;;8.53;4.33;;;13.80;65.70;;;;;;964910;146;27331;-75
2023/06/02 04:45:05;;;;;;;6.47;4.20;;;13.90;65.60;;;;;;963683;146;27296;-75
2023/06/02 04:47:31;;;;;;;6.63;4.43;;;14.10;65.50;;;;;;964503;146;27372;-75
2023/06/02 04:49:58;;;;;;;6.47;4.30;;;14.20;65.20;;;;;;965625;146;27388;-75
2023/06/02 04:52:24;;;;;;;4.97;4.00;;;14.30;65.00;;;;;;964345;146;27437;-75
2023/06/02 04:54:51;;;;;;;6.70;4.17;;;14.40;64.80;;;;;;964071;146;27327;-75
2023/06/02 04:57:18;;;;;;;6.10;4.40;;;14.60;64.80;;;;;;964762;146;27332;-75
2023/06/02 04:59:44;;;;;;;5.60;4.10;;;14.80;65.20;;;;;;965452;146;27288;-75
2023/06/02 05:02:12;;;;;;;6.53;3.75;;;15.10;65.60;;;;;;964448;146;27227;-75
2023/06/02 05:04:37;;;;;;;3.92;3.50;;;15.40;66.00;;;;;;965274;146;27323;-75
2023/06/02 05:07:06;;;;;;;5.83;3.65;;;15.80;66.10;;;;;;966230;146;27322;-75
2023/06/02 05:09:31;;;;;;;4.83;4.33;;;16.30;66.10;;;;;;965686;146;27308;-75
2023/06/02 05:11:59;;;;;;;5.78;3.80;;;16.80;66.40;;;;;;965992;144;27808;-75
2023/06/02 05:14:24;;;;;;;4.45;3.40;;;17.40;65.00;;;;;;966092;146;27327;-75
2023/06/02 05:16:51;;;;;;;3.60;3.00;;;17.90;64.40;;;;;;965908;146;27290;-75
2023/06/02 05:19:17;;;;;;;4.62;2.90;;;18.50;63.60;;;;;;965592;146;27256;-75
2023/06/02 05:21:43;;;;;;;7.75;4.17;;;19.00;62.80;;;;;;964953;146;27333;-75
2023/06/02 05:24:10;;;;;;;4.42;2.72;;;19.60;62.00;;;;;;937713;149;27409;-75
2023/06/02 05:26:37;;;;;;;4.28;2.90;;;20.10;60.70;;;;;;948629;147;27417;-76
2023/06/02 05:29:03;;;;;;;4.35;2.80;;;20.60;59.60;;;;;;942305;148;27355;-75
2023/06/02 05:31:30;;;;;;;3.30;3.00;;;21.00;58.80;;;;;;948404;146;27372;-75
2023/06/02 05:33:56;;;;;;;4.42;3.15;;;21.40;57.40;;;;;;951037;147;27375;-76
2023/06/02 05:36:23;;;;;;;3.87;3.47;;;21.70;56.60;;;;;;939045;150;27346;-75
2023/06/02 05:38:50;;;;;;;4.05;3.17;;;22.00;56.00;;;;;;949178;147;27255;-75
2023/06/02 05:41:16;;;;;;;4.25;3.00;;;22.30;55.90;;;;;;948955;147;27280;-75
2023/06/02 05:43:43;;;;;;;3.98;3.37;;;22.50;55.60;;;;;;931802;149;27838;-75
2023/06/02 05:46:09;;;;;;;6.70;2.98;;;22.80;55.50;;;;;;927093;150;27305;-75
2023/06/02 05:48:36;;;;;;;3.33;2.90;;;23.20;55.00;;;;;;949160;147;27322;-75
2023/06/02 05:51:03;;;;;;;3.92;3.08;;;23.50;54.50;;;;;;932006;149;27387;-75
2023/06/02 05:53:29;;;;;;;3.77;3.20;;;23.90;53.80;;;;;;948538;147;27308;-75
2023/06/02 05:55:56;;;;;;;4.53;3.10;;;24.20;53.00;;;;;;947304;147;27413;-75
2023/06/02 05:58:22;;;;;;;6.05;3.17;;;24.50;52.50;;;;;;927611;150;27352;-75
2023/06/02 06:00:49;;;;;;;3.35;2.87;;;24.70;51.90;;;;;;943010;148;27447;-76
2023/06/02 06:03:16;;;;;;;4.37;2.87;;;25.00;51.70;;;;;;942370;149;27701;-75
2023/06/02 06:05:42;;;;;;;4.37;3.47;;;25.30;51.30;;;;;;942163;149;27304;-75
2023/06/02 06:08:09;;;;;;;6.55;3.85;;;25.50;50.30;;;;;;942400;149;27338;-75
2023/06/02 06:10:35;;;;;;;3.27;2.77;;;25.80;49.70;;;;;;942842;148;27487;-75
2023/06/02 06:13:02;;;;;;;4.00;3.00;;;26.00;49.30;;;;;;942977;149;27408;-76
2023/06/02 06:15:29;;;;;;;8.23;3.72;;;26.20;49.30;;;;;;935344;150;27329;-75
2023/06/02 06:17:55;;;;;;;3.15;2.85;;;26.50;49.30;;;;;;950102;147;27442;-75
2023/06/02 06:20:22;;;;;;;5.53;3.75;;;26.70;48.60;;;;;;948759;147;27315;-76
2023/06/02 06:22:48;;;;;;;4.60;2.52;;;27.10;48.30;;;;;;950555;147;27440;-75
2023/06/02 06:25:15;;;;;;;3.27;2.87;;;27.30;47.70;;;;;;950834;147;27301;-75
2023/06/02 06:27:41;;;;;;;3.52;3.20;;;27.50;47.30;;;;;;950506;147;27772;-75
2023/06/02 06:30:08;;;;;;;3.47;3.17;;;27.80;46.90;;;;;;951515;147;27340;-76
2023/06/02 06:32:35;;;;;;;5.67;3.00;;;28.00;46.50;;;;;;951478;147;27389;-75
2023/06/02 06:35:01;;;;;;;5.47;2.47;;;28.20;46.00;;;;;;927170;150;27370;-75
2023/06/02 06:37:28;;;;;;;4.12;2.70;;;28.40;45.40;;;;;;942287;149;27311;-75
2023/06/02 06:39:54;;;;;;;5.25;3.35;;;28.50;45.20;;;;;;942179;148;27361;-76
2023/06/02 06:42:24;;;;;;;6.00;3.25;;;28.70;44.90;;;;;;943393;148;27354;-76
2023/06/02 06:44:48;;;;;;;2.87;2.45;;;28.90;44.80;;;;;;942373;149;27283;-75
2023/06/02 06:47:14;;;;;;;4.62;2.92;;;29.10;44.80;;;;;;943174;149;27313;-76
2023/06/02 06:49:41;;;;;;;3.15;2.83;;;29.40;44.50;;;;;;942457;149;27366;-75
2023/06/02 06:52:07;;;;;;;3.42;2.92;;;29.70;44.00;;;;;;943120;149;27458;-75
2023/06/02 06:54:34;;;;;;;3.47;2.75;;;30.00;43.40;;;;;;942506;149;27363;-75
2023/06/02 06:57:01;;;;;;;3.27;2.90;;;30.20;42.80;;;;;;943132;148;27335;-76
2023/06/02 06:59:27;;;;;;;3.37;2.70;;;30.30;41.50;;;;;;942588;149;27372;-76
2023/06/02 07:01:54;;;;;;;3.00;2.67;;;30.40;41.60;;;;;;943664;149;27369;-76
2023/06/02 07:04:21;;;;;;;3.25;2.83;;;30.40;41.50;;;;;;942619;149;27428;-76
2023/06/02 07:06:47;;;;;;;4.08;2.60;;;30.50;41.20;;;;;;942337;148;27448;-76
2023/06/02 07:09:15;;;;;;;3.62;2.70;;;30.60;41.30;;;;;;942862;149;27327;-76
2023/06/02 07:11:40;;;;;;;7.17;2.98;;;30.80;41.30;;;;;;943088;148;27366;-76
2023/06/02 07:14:07;;;;;;;4.40;2.90;;;31.00;40.60;;;;;;943244;148;27377;-76
2023/06/02 07:16:33;;;;;;;3.62;2.90;;;31.20;40.10;;;;;;943411;149;27327;-76
2023/06/02 07:19:00;;;;;;;2.95;2.22;;;31.30;40.20;;;;;;941862;149;27294;-75
2023/06/02 07:21:26;;;;;;;5.58;3.50;;;31.50;40.40;;;;;;942557;148;27348;-76
2023/06/02 07:23:53;;;;;;;4.22;2.80;;;31.80;40.20;;;;;;937480;148;27472;-76
2023/06/02 07:26:20;;;;;;;4.08;2.45;;;32.10;39.50;;;;;;968266;145;26268;-76
2023/06/02 07:28:46;;;;;;;3.77;2.35;;;32.40;39.00;;;;;;944846;149;27378;-76
2023/06/02 07:31:13;;;;;;;3.67;2.30;;;32.60;38.80;;;;;;932884;151;27432;-75
2023/06/02 07:33:39;;;;;;;3.12;2.70;;;32.80;38.60;;;;;;968430;145;26357;-75
2023/06/02 07:36:06;;;;;;;3.42;2.70;;;33.00;38.30;;;;;;945173;149;27382;-75
2023/06/02 07:38:33;;;;;;;3.40;2.50;;;33.20;37.90;;;;;;944173;149;26243;-76
2023/06/02 07:41:00;;;;;;;2.47;2.02;;;33.40;37.60;;;;;;945700;148;27377;-76
2023/06/02 07:43:26;;;;;;;3.00;2.45;;;33.70;37.10;;;;;;945017;149;26551;-76
2023/06/02 07:45:52;;;;;;;4.37;2.72;;;33.80;36.70;;;;;;944307;149;27368;-76
2023/06/02 07:48:19;;;;;;;2.52;2.20;;;34.00;36.30;;;;;;968563;145;26142;-76
2023/06/02 07:50:45;;;;;;;3.22;2.45;;;34.10;36.30;;;;;;944413;149;26577;-76
2023/06/02 07:53:12;;;;;;;4.03;2.33;;;34.30;35.80;;;;;;944872;149;26335;-76
2023/06/02 07:55:39;;;;;;;3.45;2.65;;;34.50;35.70;;;;;;944860;149;26367;-76
2023/06/02 07:58:05;;;;;;;3.90;2.52;;;34.60;35.00;;;;;;929223;151;26305;-76
2023/06/02 08:00:32;;;;;;;5.45;2.72;;;34.70;34.90;;;;;;933865;151;26351;-76
2023/06/02 08:02:58;;;;;;;3.52;2.40;;;34.80;34.50;;;;;;967100;145;26297;-76
2023/06/02 08:05:25;;;;;;;5.55;2.60;;;34.80;34.10;;;;;;944973;149;26187;-76
2023/06/02 08:07:52;;;;;;;2.12;1.98;;;34.90;34.20;;;;;;944836;149;26262;-76
2023/06/02 08:10:18;;;;;;;2.83;2.52;;;34.90;34.10;;;;;;943867;149;26307;-76
2023/06/02 08:12:45;;;;;;;3.87;2.60;;;35.00;33.80;;;;;;968748;145;26162;-76
2023/06/02 08:15:11;;;;;;;2.47;2.10;;;35.10;34.00;;;;;;946548;149;27391;-76
2023/06/02 08:17:38;;;;;;;2.55;2.22;;;35.20;34.00;;;;;;945409;151;26267;-76
2023/06/02 08:20:05;;;;;;;2.83;1.98;;;35.20;33.70;;;;;;946016;151;27318;-76
2023/06/02 08:22:32;;;;;;;3.50;2.10;;;35.30;33.60;;;;;;946204;151;27300;-76
2023/06/02 08:24:58;;;;;;;2.35;1.70;;;35.50;33.60;;;;;;946116;147;26220;-76
2023/06/02 08:27:24;;;;;;;3.40;2.17;;;35.60;33.30;;;;;;945405;151;26265;-76
2023/06/02 08:29:51;;;;;;;2.17;1.90;;;35.80;33.00;;;;;;945296;151;26252;-76
2023/06/02 08:32:22;;;;;;;2.65;1.75;;;35.90;32.60;;;;;;946007;151;26182;-76
2023/06/02 08:34:47;;;;;;;2.60;2.20;;;36.10;32.40;;;;;;946872;148;26205;-76
2023/06/02 08:37:16;;;;;;;4.08;2.47;;;36.20;32.30;;;;;;945870;151;26230;-76
2023/06/02 08:39:43;;;;;;;2.50;2.22;;;36.30;32.10;;;;;;944594;151;26261;-76
2023/06/02 08:42:09;;;;;;;3.25;1.90;;;36.50;31.70;;;;;;944743;151;26210;-74
2023/06/02 08:44:36;;;;;;;3.25;1.90;;;36.60;31.70;;;;;;946475;151;26219;-74
2023/06/02 08:47:02;;;;;;;3.15;1.75;;;36.70;31.30;;;;;;944885;151;26341;-73
2023/06/02 08:49:29;;;;;;;3.20;2.22;;;36.80;31.00;;;;;;946308;151;26330;-74
2023/06/02 08:52:04;;;;;;;3.10;1.90;;;36.80;30.90;;;;;;946101;151;27273;-74
2023/06/02 08:54:31;;;;;;;2.55;1.70;;;36.90;30.70;;;;;;944987;151;26201;-74
2023/06/02 08:56:59;;;;;;;2.22;1.98;;;36.80;30.20;;;;;;945972;151;26257;-74
2023/06/02 08:59:24;;;;;;;2.92;2.10;;;36.80;30.30;;;;;;945562;151;26249;-74
2023/06/02 09:01:51;;;;;;;2.85;1.87;;;36.70;30.00;;;;;;946251;148;26198;-74
2023/06/02 09:04:17;;;;;;;3.50;2.10;;;36.60;30.00;;;;;;945193;148;26202;-73
2023/06/02 09:06:45;;;;;;;2.37;2.05;;;36.50;29.80;;;;;;945000;151;26210;-73
2023/06/02 09:09:11;;;;;;;3.12;1.75;;;36.40;30.00;;;;;;946542;151;26301;-73
2023/06/02 09:11:37;;;;;;;3.92;2.25;;;36.10;29.60;;;;;;945742;151;26178;-73
2023/06/02 09:14:22;;;;;;;2.37;2.12;;;36.00;30.00;;;;;;946010;148;26295;-74
2023/06/02 09:16:48;;;;;;;3.10;2.17;;;36.00;30.10;;;;;;945006;151;26226;-73
2023/06/02 09:19:15;;;;;;;7.58;2.25;;;36.00;30.30;;;;;;945938;148;26335;-73
2023/06/02 09:21:42;;;;;;;3.22;2.00;;;36.00;30.00;;;;;;946237;151;26186;-74
2023/06/02 09:24:08;;;;;;;2.72;2.25;;;36.00;30.00;;;;;;946375;147;26269;-73
2023/06/02 09:26:35;;;;;;;4.80;2.15;;;36.10;30.00;;;;;;946427;151;26218;-73
2023/06/02 09:29:04;;;;;;;2.62;2.02;;;36.10;30.00;;;;;;946028;151;27357;-73
2023/06/02 09:31:52;;;;;;;2.17;1.92;;;36.20;30.00;;;;;;945527;151;26315;-73
2023/06/02 09:34:18;;;;;;;2.58;1.90;;;36.20;29.40;;;;;;945203;151;27682;-73
2023/06/02 09:36:45;;;;;;;2.58;1.77;;;36.10;29.60;;;;;;946938;148;26222;-73
2023/06/02 09:39:11;;;;;;;1.90;1.80;;;36.10;29.50;;;;;;946253;151;26257;-73
2023/06/02 09:41:40;;;;;;;4.55;1.67;;;36.00;29.50;;;;;;946423;148;26361;-73
2023/06/02 09:44:13;;;;;;;5.00;2.35;;;36.00;29.70;;;;;;946178;151;26222;-73
2023/06/02 09:46:40;;;;;;;2.30;1.70;;;35.90;29.50;;;;;;945457;151;26197;-73
2023/06/02 09:49:06;;;;;;;3.72;1.65;;;35.80;29.70;;;;;;946034;151;26383;-73
2023/06/02 09:51:33;;;;;;;3.22;1.95;;;35.70;29.30;;;;;;946062;151;26377;-73
2023/06/02 09:53:59;;;;;;;2.30;1.92;;;35.50;29.30;;;;;;946529;151;26221;-73
2023/06/02 09:56:28;;;;;;;2.37;2.05;;;35.20;29.20;;;;;;945735;151;26334;-73
2023/06/02 09:58:52;;;;;;;2.42;2.05;;;35.00;29.50;;;;;;946183;148;26242;-73
2023/06/02 10:01:20;;;;;;;2.02;1.70;;;34.70;29.40;;;;;;946181;148;26249;-73
2023/06/02 10:03:46;;;;;;;1.70;1.60;;;34.40;29.50;;;;;;946091;148;27324;-73
2023/06/02 10:06:46;;;;;;;2.22;1.95;;;34.00;29.60;;;;;;946184;151;27339;-73
2023/06/02 10:09:15;;;;;;;3.02;1.67;;;33.70;29.70;;;;;;945933;149;27461;-73
2023/06/02 10:11:51;;;;;;;2.72;1.82;;;33.20;29.80;;;;;;945211;151;27520;-73
2023/06/02 10:14:23;;;;;;;2.77;1.95;;;32.90;30.00;;;;;;941309;148;27391;-73
2023/06/02 10:17:08;;;;;;;3.02;1.92;;;32.50;30.00;;;;;;944484;151;27324;-73
2023/06/02 10:19:38;;;;;;;2.08;1.62;;;32.10;30.00;;;;;;945049;151;27399;-73
2023/06/02 10:22:04;;;;;;;3.17;1.92;;;31.80;29.90;;;;;;944865;151;27426;-73
2023/06/02 10:25:04;;;;;;;2.67;1.98;;;31.30;29.80;;;;;;948416;147;27371;-73
2023/06/02 10:27:31;;;;;;;2.10;1.90;;;30.90;29.90;;;;;;955884;150;27228;-73
2023/06/02 10:29:57;;;;;;;2.42;1.92;;;30.30;30.00;;;;;;951972;148;27289;-74
2023/06/02 10:32:24;;;;;;;3.20;2.10;;;29.90;30.30;;;;;;946276;148;27294;-73
2023/06/02 10:34:57;;;;;;;2.30;2.12;;;29.50;30.60;;;;;;946579;148;27457;-73
2023/06/02 10:37:23;;;;;;;2.12;1.92;;;29.10;31.10;;;;;;946664;149;27366;-74
2023/06/02 10:39:51;;;;;;;3.02;1.80;;;28.70;31.30;;;;;;947261;149;27428;-73
2023/06/02 10:42:17;;;;;;;2.10;1.90;;;28.40;31.60;;;;;;947224;149;27325;-73
2023/06/02 10:44:43;;;;;;;2.27;2.00;;;28.10;31.60;;;;;;947513;151;27373;-73
2023/06/02 10:47:19;;;;;;;3.47;2.00;;;27.90;31.80;;;;;;947083;149;27460;-73
2023/06/02 10:50:00;;;;;;;4.37;1.90;;;27.60;31.90;;;;;;947359;149;27317;-73
2023/06/02 10:52:26;;;;;;;3.25;2.00;;;27.30;32.10;;;;;;947372;149;27345;-73
2023/06/02 10:55:08;;;;;;;2.47;2.00;;;27.10;32.50;;;;;;947518;149;27369;-73
2023/06/02 10:57:56;;;;;;;2.15;1.57;;;26.80;32.70;;;;;;947431;149;27454;-73
2023/06/02 11:00:40;;;;;;;3.58;2.10;;;26.50;32.90;;;;;;947087;149;27355;-73
2023/06/02 11:03:04;;;;;;;2.70;2.00;;;26.30;33.20;;;;;;946978;149;27306;-73
2023/06/02 11:05:30;;;;;;;3.15;2.10;;;26.00;33.50;;;;;;947292;151;27457;-73
2023/06/02 11:08:15;;;;;;;2.85;1.95;;;25.80;33.80;;;;;;946864;149;27375;-73
2023/06/02 11:10:44;;;;;;;3.10;2.00;;;25.60;34.00;;;;;;946925;148;27364;-73
2023/06/02 11:13:11;;;;;;;1.70;1.60;;;25.40;34.10;;;;;;947499;149;27800;-73
2023/06/02 11:15:37;;;;;;;2.75;1.95;;;25.20;34.40;;;;;;947218;149;27456;-73
2023/06/02 11:18:22;;;;;;;2.85;1.87;;;25.10;34.80;;;;;;947585;149;27433;-73
2023/06/02 11:20:50;;;;;;;2.02;1.80;;;25.00;35.10;;;;;;941826;150;27246;-73
2023/06/02 11:23:15;;;;;;;3.05;2.05;;;24.90;35.40;;;;;;945010;150;27354;-73
2023/06/02 11:25:41;;;;;;;2.27;1.95;;;24.80;35.60;;;;;;950936;148;27367;-74
2023/06/02 11:28:22;;;;;;;1.75;1.65;;;24.80;35.60;;;;;;948059;151;27289;-73
2023/06/02 11:31:11;;;;;;;1.90;1.67;;;24.70;35.50;;;;;;947832;150;27299;-73
2023/06/02 11:33:37;;;;;;;3.80;2.00;;;24.70;35.80;;;;;;940689;152;27438;-73
2023/06/02 11:36:05;;;;;;;3.35;2.33;;;24.60;36.00;;;;;;939750;152;27339;-73
2023/06/02 11:38:33;;;;;;;2.27;1.87;;;24.60;36.20;;;;;;940066;152;27377;-73
2023/06/02 11:41:15;;;;;;;3.77;2.12;;;24.60;36.20;;;;;;940240;152;27479;-73
2023/06/02 11:43:41;;;;;;;2.72;2.37;;;24.60;36.50;;;;;;939998;151;27358;-73
2023/06/02 11:46:08;;;;;;;3.02;2.33;;;24.50;36.40;;;;;;939503;151;27432;-73
2023/06/02 11:48:44;;;;;;;1.40;1.30;;;24.50;36.30;;;;;;940883;150;27930;-73
2023/06/02 11:51:01;;;;;;;3.30;1.90;;;24.50;36.30;;;;;;936915;151;27271;-73
2023/06/02 11:53:28;;;;;;;1.77;1.52;;;24.50;36.40;;;;;;940775;152;27408;-72
2023/06/02 11:55:54;;;;;;;3.33;1.80;;;24.50;36.60;;;;;;939120;152;27341;-73
2023/06/02 11:58:22;;;;;;;2.80;2.00;;;24.40;36.90;;;;;;940541;152;27367;-72
2023/06/02 12:00:48;;;;;;;1.52;1.37;;;24.40;37.30;;;;;;939029;151;27326;-73
2023/06/02 12:03:14;;;;;;;2.08;1.50;;;24.40;37.10;;;;;;940018;150;27327;-73
2023/06/02 12:05:45;;;;;;;2.77;1.52;;;24.40;37.10;;;;;;939027;152;27432;-73
2023/06/02 12:08:08;;;;;;;2.22;1.87;;;24.30;37.00;;;;;;938679;152;27480;-72
2023/06/02 12:10:34;;;;;;;1.77;1.52;;;24.30;37.10;;;;;;953635;150;27366;-73
2023/06/02 12:13:01;;;;;;;1.98;1.35;;;24.30;37.00;;;;;;930862;150;27456;-72
2023/06/02 12:15:33;;;;;;;2.92;2.02;;;24.20;36.80;;;;;;953950;150;27258;-73
2023/06/02 12:17:57;;;;;;;3.35;2.15;;;24.30;37.20;;;;;;941074;150;27367;-73
2023/06/02 12:20:23;;;;;;;2.62;1.90;;;24.20;37.10;;;;;;943349;149;27339;-73
2023/06/02 12:22:53;;;;;;;1.87;1.67;;;24.20;36.90;;;;;;944481;148;27423;-73
2023/06/02 12:25:20;;;;;;;2.60;1.20;;;24.10;36.60;;;;;;932001;150;27414;-73
2023/06/02 12:27:46;;;;;;;2.30;1.50;;;24.10;36.70;;;;;;927059;150;27456;-73
2023/06/02 12:30:13;;;;;;;2.25;1.42;;;24.10;36.70;;;;;;951044;147;27400;-73
2023/06/02 12:32:39;;;;;;;2.25;1.40;;;24.00;36.60;;;;;;934800;149;27325;-73
2023/06/02 12:35:06;;;;;;;1.40;1.30;;;23.90;36.60;;;;;;936026;149;27301;-72
2023/06/02 12:37:33;;;;;;;1.20;1.00;;;23.90;36.60;;;;;;951018;146;27312;-73
2023/06/02 12:39:59;;;;;;;2.27;1.50;;;23.90;36.80;;;;;;951018;147;27341;-73
2023/06/02 12:42:26;;;;;;;2.75;1.60;;;23.90;36.80;;;;;;927166;150;27383;-73
2023/06/02 12:44:54;;;;;;;3.42;1.90;;;23.90;36.90;;;;;;935084;149;27371;-73
2023/06/02 12:47:19;;;;;;;1.45;1.30;;;23.90;37.00;;;;;;927504;150;27800;-73
2023/06/02 12:49:47;;;;;;;1.95;1.70;;;23.90;37.00;;;;;;951379;147;27340;-73